Nanton, Canada
Current Conditions -  °F | °C
As of 6:00 PM on Sunday 23 Nov 2014 (Local Time) from CYYC Reporting Station
Broken Clouds Broken Clouds  
Wind Chill: 28°   Ceiling: 16000
Heat Index: 37°   Visibility: 20mi
Dew Point: 14°   Wind: 16mph
Humidity: 38%   Direction: 280°W
Pressure: 29.65"   Gusts: 25mph
Location:  50.35°N, 113.77°W
Report Text: CYYC 240100Z 28014G22KT 20SM SCT090 BKN160 03/M10 A2965 RMK AC3AC4 SLP087
Loading
Personal Weather Stations






























Interactive Weather Map New forecast layout! Learn more

10-Day Weather Forecast

Advertisements
Track Severe Weather on mobile